Fuerteventura > ESTACION METEOROLÓGICA Tiscamanita - Tuineje

DATOS ACTUALES Online

Ultima actulizacion 24 minutos

20 ºC

Temperatura

60

Humedad (%)

990.59

Presión (mb)

0

Precipitación (mm)

33.9 N

Viento (Km/h)

DATOS DIARIOS

Temperatura últimas 24 horas (ºC)

Humedad últimas 24 horas (%)

Presión atmosférica últimas 24 horas (mb)

Precipitaciones últimas 23 horas (mm)

Viento últimas 24 horas (Km/h)

Hora Temperatura (°C) ºC Precipitación (mm) mm Presión (mb) mb Humedad (%) % Viento (Km/h) km/h
28 - 10:00 21.3 0 990 57 32.9 NO
28 - 11:00 22.4 0 990 56 28.3 N
28 - 12:00 22.5 0 990 58 30.6 N
28 - 13:00 23.3 0 990 57 40 N
28 - 14:00 23.8 0 990 55 41.2 N
28 - 15:00 24.3 0 989 52 37.3 N
28 - 16:00 24 0 989 55 46.2 N
28 - 17:00 22.5 0 989 63 46.8 N
28 - 18:00 21.5 0 989 67 38.7 N
28 - 19:00 20.9 0 989 65 42.6 N
28 - 20:00 19.8 0 989 69 43.3 N
28 - 21:00 19.1 0 990 76 37.3 N
28 - 22:00 19.1 0 990 76 38.4 N
28 - 23:00 18.8 0 991 76 31.8 N
29 - 00:00 18.8 0 991 73 29.4 N
29 - 01:00 18.9 0 990 73 34.5 N
29 - 02:00 18.5 0 989 79 42.4 N
29 - 03:00 18.2 0 989 74 34.3 N
29 - 04:00 18.2 0 989 78 31.1 N
29 - 05:00 18.2 0 989 74 36.8 N
29 - 06:00 18.2 0 989 75 21.9 N
29 - 07:00 18.7 0 990 76 26.9 N
29 - 08:00 19 0 990 73 24.3 NO
29 - 09:00 20 0 991 60 33.9 N
29 - 10:00
Apalmet utiliza cookies propias y de terceros para mejorar la usabilidad y la experiencia web. Política de cookies.